Time;durP1;ratioP1;P1;durP2;ratioP2;P2;SDS_P1;SDS_P2;PMS_P1;PMS_P2;Temp;Humidity;BMP_temperature;BMP_pressure;BME280_temperature;BME280_humidity;BME280_pressure;Samples;Min_cycle;Max_cycle;Signal;HPM_P1;HPM_P2
2021/09/01 00:01:54;;;;;;;7.83;4.80;;;16.10;99.90;;;;;;4962847;28;20184;-89
2021/09/01 00:04:19;;;;;;;10.07;4.77;;;16.10;99.90;;;;;;4962816;28;20235;-86
2021/09/01 00:06:45;;;;;;;9.40;4.30;;;16.10;99.90;;;;;;4962328;28;20180;-85
2021/09/01 00:09:11;;;;;;;8.70;4.30;;;16.10;99.90;;;;;;4962359;28;20312;-87
2021/09/01 00:11:36;;;;;;;10.90;4.57;;;16.10;99.90;;;;;;4962150;28;20231;-88
2021/09/01 00:14:02;;;;;;;8.47;4.90;;;16.10;99.90;;;;;;4961874;28;20205;-86
2021/09/01 00:16:28;;;;;;;9.97;4.87;;;16.10;99.90;;;;;;4962034;28;20191;-85
2021/09/01 00:18:59;;;;;;;12.37;5.17;;;16.10;99.90;;;;;;4978046;28;20228;-89
2021/09/01 00:21:24;;;;;;;6.27;4.47;;;16.00;99.90;;;;;;4962497;28;20276;-87
2021/09/01 00:23:50;;;;;;;7.97;4.57;;;16.00;99.90;;;;;;4962063;28;20623;-85
2021/09/01 00:26:16;;;;;;;9.40;5.17;;;16.00;99.90;;;;;;4961650;28;20185;-86
2021/09/01 00:28:42;;;;;;;10.27;4.60;;;16.00;99.90;;;;;;4961611;28;20212;-86
2021/09/01 00:31:07;;;;;;;9.13;4.70;;;16.00;99.90;;;;;;4961602;28;20280;-86
2021/09/01 00:33:36;;;;;;;8.07;5.00;;;16.00;99.90;;;;;;4961697;28;20213;-86
2021/09/01 00:36:01;;;;;;;8.63;4.87;;;16.00;99.90;;;;;;4962196;28;20188;-87
2021/09/01 00:38:27;;;;;;;10.83;4.77;;;16.00;99.90;;;;;;4978371;28;20204;-87
2021/09/01 00:40:54;;;;;;;8.17;4.60;;;16.00;99.90;;;;;;4962531;28;20696;-89
2021/09/01 00:43:20;;;;;;;8.80;4.67;;;15.90;99.90;;;;;;4961870;28;20240;-88
2021/09/01 00:45:46;;;;;;;9.00;4.87;;;16.00;99.90;;;;;;4962300;28;20534;-85
2021/09/01 00:48:13;;;;;;;9.37;4.77;;;16.00;99.90;;;;;;4978383;28;20204;-86
2021/09/01 00:50:39;;;;;;;11.67;5.50;;;15.90;99.90;;;;;;4962026;28;20181;-88
2021/09/01 00:53:05;;;;;;;8.97;4.80;;;15.90;99.90;;;;;;4963122;28;20220;-86
2021/09/01 00:55:30;;;;;;;8.77;5.03;;;15.90;99.90;;;;;;4962801;28;20303;-85
2021/09/01 00:57:56;;;;;;;10.10;5.27;;;15.90;99.90;;;;;;4965989;28;20196;-87
2021/09/01 01:00:36;;;;;;;11.17;4.90;;;15.90;99.90;;;;;;4965954;28;20207;-87
2021/09/01 01:03:02;;;;;;;10.03;4.70;;;15.90;99.90;;;;;;4968899;28;20219;-86
2021/09/01 01:05:28;;;;;;;8.70;5.00;;;15.80;99.90;;;;;;4982193;28;20641;-85
2021/09/01 01:07:53;;;;;;;7.77;4.70;;;15.90;99.90;;;;;;4965842;28;20604;-86
2021/09/01 01:10:19;;;;;;;9.60;5.40;;;15.90;99.90;;;;;;4981652;28;20412;-85
2021/09/01 01:12:44;;;;;;;9.70;4.73;;;15.80;99.90;;;;;;4982778;28;20213;-86
2021/09/01 01:15:10;;;;;;;12.03;4.97;;;15.90;99.90;;;;;;4966238;28;20212;-87
2021/09/01 01:17:36;;;;;;;10.70;4.47;;;15.90;99.90;;;;;;4966120;28;20177;-91
2021/09/01 01:20:02;;;;;;;10.90;4.90;;;15.80;99.90;;;;;;4982641;28;20563;-87
2021/09/01 01:22:28;;;;;;;9.77;4.60;;;15.80;99.90;;;;;;4966344;28;20187;-87
2021/09/01 01:24:58;;;;;;;8.53;4.60;;;15.80;99.90;;;;;;4965699;28;20248;-88
2021/09/01 01:27:34;;;;;;;10.07;4.60;;;15.80;99.90;;;;;;4966069;28;20271;-86
2021/09/01 01:30:19;;;;;;;10.63;4.63;;;15.80;99.90;;;;;;4982517;28;20197;-86
2021/09/01 01:32:49;;;;;;;9.03;4.40;;;15.80;99.90;;;;;;4965900;28;20180;-86
2021/09/01 01:35:32;;;;;;;8.13;4.77;;;15.80;99.90;;;;;;4965843;28;20204;-86
2021/09/01 01:37:59;;;;;;;9.17;4.40;;;15.80;99.90;;;;;;4965794;28;20184;-88
2021/09/01 01:40:25;;;;;;;11.73;4.73;;;15.90;99.90;;;;;;4965553;28;20265;-85
2021/09/01 01:42:53;;;;;;;7.30;3.80;;;15.80;99.90;;;;;;4981843;28;20644;-86
2021/09/01 01:45:19;;;;;;;8.87;4.43;;;15.80;99.90;;;;;;4965898;28;20185;-86
2021/09/01 01:47:44;;;;;;;9.53;4.73;;;15.80;99.90;;;;;;4964978;28;20203;-85
2021/09/01 01:50:10;;;;;;;7.50;4.07;;;15.80;99.90;;;;;;4965162;28;20200;-85
2021/09/01 01:52:36;;;;;;;8.43;4.50;;;15.80;99.90;;;;;;4965098;28;20184;-87
2021/09/01 01:55:03;;;;;;;9.07;3.83;;;15.80;99.90;;;;;;4965581;28;20211;-86
2021/09/01 01:57:29;;;;;;;9.10;4.10;;;15.80;99.90;;;;;;4965192;28;20187;-88
2021/09/01 01:59:54;;;;;;;9.03;4.07;;;15.80;99.90;;;;;;4965462;28;20727;-85
2021/09/01 02:02:20;;;;;;;10.00;4.80;;;15.80;99.90;;;;;;4964495;28;20188;-85
2021/09/01 02:04:45;;;;;;;9.10;4.40;;;15.80;99.90;;;;;;4965009;28;20640;-86
2021/09/01 02:07:11;;;;;;;11.07;4.40;;;15.80;99.90;;;;;;4981273;28;20517;-89
2021/09/01 02:09:37;;;;;;;7.70;4.07;;;15.80;99.90;;;;;;4967293;28;20213;-86
2021/09/01 02:12:02;;;;;;;10.77;4.30;;;15.80;99.90;;;;;;4971656;28;20450;-86
2021/09/01 02:14:28;;;;;;;10.83;4.27;;;15.80;99.90;;;;;;4971458;28;20747;-85
2021/09/01 02:16:53;;;;;;;8.13;4.00;;;15.80;99.90;;;;;;4971331;28;20187;-86
2021/09/01 02:19:19;;;;;;;8.50;3.87;;;15.80;99.90;;;;;;4987684;28;20224;-86
2021/09/01 02:21:45;;;;;;;7.17;3.83;;;15.80;99.90;;;;;;4972101;28;20236;-85
2021/09/01 02:24:10;;;;;;;8.53;4.30;;;15.80;99.90;;;;;;4971433;28;20534;-86
2021/09/01 02:26:36;;;;;;;6.50;3.83;;;15.80;99.90;;;;;;4971133;28;20184;-86
2021/09/01 02:29:01;;;;;;;12.93;4.63;;;15.80;99.90;;;;;;4987343;28;20204;-86
2021/09/01 02:31:27;;;;;;;8.47;4.00;;;15.70;99.90;;;;;;4971564;28;20184;-86
2021/09/01 02:33:52;;;;;;;7.73;4.27;;;15.70;99.90;;;;;;4987703;28;20219;-85
2021/09/01 02:36:18;;;;;;;7.43;3.80;;;15.70;99.90;;;;;;4987041;28;20173;-86
2021/09/01 02:38:44;;;;;;;9.13;3.90;;;15.70;99.90;;;;;;4970893;28;20209;-86
2021/09/01 02:41:13;;;;;;;8.73;4.27;;;15.70;99.90;;;;;;4971240;28;20177;-86
2021/09/01 02:43:39;;;;;;;13.37;4.80;;;15.70;99.90;;;;;;4971653;28;20236;-86
2021/09/01 02:46:04;;;;;;;8.87;4.20;;;15.60;99.90;;;;;;4971303;28;20181;-86
2021/09/01 02:48:30;;;;;;;7.63;4.10;;;15.60;99.90;;;;;;4987064;28;20256;-86
2021/09/01 02:50:55;;;;;;;7.50;3.90;;;15.60;99.90;;;;;;4971006;28;20184;-86
2021/09/01 02:53:22;;;;;;;9.57;4.30;;;15.70;99.90;;;;;;4987230;28;20181;-86
2021/09/01 02:55:48;;;;;;;10.70;3.80;;;15.70;99.90;;;;;;4970898;28;20185;-86
2021/09/01 02:58:13;;;;;;;8.80;4.40;;;15.70;99.90;;;;;;4970935;28;20177;-86
2021/09/01 03:00:39;;;;;;;9.50;3.97;;;15.70;99.90;;;;;;4987437;28;20211;-87
2021/09/01 03:03:04;;;;;;;10.37;4.70;;;15.60;99.90;;;;;;4970755;28;20188;-86
2021/09/01 03:05:30;;;;;;;9.20;3.80;;;15.70;99.90;;;;;;4986978;28;20192;-86
2021/09/01 03:07:55;;;;;;;9.63;4.30;;;15.60;99.90;;;;;;4970212;28;20188;-86
2021/09/01 03:10:21;;;;;;;9.63;4.33;;;15.60;99.90;;;;;;4970353;28;20216;-86
2021/09/01 03:12:47;;;;;;;10.10;4.60;;;15.60;99.90;;;;;;4970800;28;20216;-87
2021/09/01 03:15:12;;;;;;;8.23;4.13;;;15.60;99.90;;;;;;4970634;28;20208;-86
2021/09/01 03:17:38;;;;;;;8.83;4.27;;;15.60;99.90;;;;;;4971243;28;20184;-86
2021/09/01 03:20:04;;;;;;;8.83;4.23;;;15.60;99.90;;;;;;4968902;28;20201;-86
2021/09/01 03:22:29;;;;;;;13.20;4.37;;;15.60;99.90;;;;;;4986894;28;20289;-86
2021/09/01 03:24:55;;;;;;;7.17;3.97;;;15.60;99.90;;;;;;4986787;28;20213;-86
2021/09/01 03:27:20;;;;;;;7.93;4.20;;;15.60;99.90;;;;;;4970911;28;20196;-86
2021/09/01 03:29:46;;;;;;;8.13;3.77;;;15.60;99.90;;;;;;4970350;28;20204;-85
2021/09/01 03:32:11;;;;;;;8.80;3.70;;;15.60;99.90;;;;;;4986691;28;20667;-86
2021/09/01 03:34:37;;;;;;;7.93;3.40;;;15.60;99.90;;;;;;4969749;28;20373;-86
2021/09/01 03:37:03;;;;;;;7.87;3.53;;;15.60;99.90;;;;;;4986894;28;20181;-87
2021/09/01 03:39:28;;;;;;;5.70;3.23;;;15.50;99.90;;;;;;4986393;28;20200;-85
2021/09/01 03:41:54;;;;;;;7.70;3.33;;;15.50;99.90;;;;;;4986676;28;20185;-86
2021/09/01 03:44:19;;;;;;;6.63;3.20;;;15.50;99.90;;;;;;4986603;28;20551;-86
2021/09/01 03:46:45;;;;;;;9.80;3.50;;;15.50;99.90;;;;;;4986145;28;20177;-87
2021/09/01 03:49:16;;;;;;;6.93;3.60;;;15.60;99.90;;;;;;4985907;28;20256;-86
2021/09/01 03:51:43;;;;;;;6.87;3.33;;;15.60;99.90;;;;;;4986448;28;20204;-86
2021/09/01 03:54:09;;;;;;;7.67;3.03;;;15.60;99.90;;;;;;4969333;28;20231;-86
2021/09/01 03:56:34;;;;;;;7.53;3.50;;;15.60;99.90;;;;;;4970222;28;20177;-85
2021/09/01 03:59:00;;;;;;;7.17;3.10;;;15.60;99.90;;;;;;4985938;28;20219;-87
2021/09/01 04:01:25;;;;;;;10.07;3.60;;;15.60;99.90;;;;;;4986908;28;20203;-86
2021/09/01 04:03:51;;;;;;;7.00;3.30;;;15.60;99.90;;;;;;4969178;28;20240;-86
2021/09/01 04:06:16;;;;;;;8.57;3.50;;;15.60;99.90;;;;;;4969663;28;20188;-86
2021/09/01 04:08:42;;;;;;;6.77;3.30;;;15.60;99.90;;;;;;4986317;28;20216;-87
2021/09/01 04:11:07;;;;;;;6.83;3.63;;;15.60;99.90;;;;;;4986311;28;20181;-86
2021/09/01 04:13:33;;;;;;;10.67;3.90;;;15.60;99.90;;;;;;4969030;28;20199;-85
2021/09/01 04:15:59;;;;;;;12.17;4.43;;;15.60;99.90;;;;;;4985507;28;20177;-86
2021/09/01 04:18:24;;;;;;;6.03;3.13;;;15.60;99.90;;;;;;4969484;28;20295;-86
2021/09/01 04:20:50;;;;;;;9.13;4.03;;;15.60;99.90;;;;;;4969041;28;20248;-86
2021/09/01 04:23:15;;;;;;;7.90;3.53;;;15.60;99.90;;;;;;4969731;28;20187;-86
2021/09/01 04:25:44;;;;;;;9.80;3.90;;;15.50;99.90;;;;;;4969638;28;20194;-86
2021/09/01 04:28:09;;;;;;;9.80;4.07;;;15.50;99.90;;;;;;4985350;28;20181;-85
2021/09/01 04:30:35;;;;;;;8.33;3.80;;;15.50;99.90;;;;;;4968927;28;20185;-86
2021/09/01 04:33:00;;;;;;;9.13;4.00;;;15.50;99.90;;;;;;4972193;28;20279;-86
2021/09/01 04:35:26;;;;;;;8.93;3.93;;;15.50;99.90;;;;;;4989764;28;20212;-86
2021/09/01 04:37:51;;;;;;;9.10;3.90;;;15.50;99.90;;;;;;4973672;28;20181;-86
2021/09/01 04:40:17;;;;;;;9.03;4.00;;;15.50;99.90;;;;;;4972758;28;20203;-86
2021/09/01 04:42:43;;;;;;;8.87;4.43;;;15.50;99.90;;;;;;4973272;28;20604;-86
2021/09/01 04:45:09;;;;;;;11.23;3.90;;;15.60;99.90;;;;;;5024001;28;20195;-86
2021/09/01 04:47:34;;;;;;;7.80;3.83;;;15.50;99.90;;;;;;4995554;28;20697;-85
2021/09/01 04:50:00;;;;;;;9.37;4.00;;;15.60;99.90;;;;;;4995323;28;20199;-86
2021/09/01 04:52:25;;;;;;;8.87;3.53;;;15.50;99.90;;;;;;4992547;28;20180;-85
2021/09/01 04:54:51;;;;;;;8.57;4.07;;;15.60;99.90;;;;;;4966853;28;20239;-84
2021/09/01 04:57:16;;;;;;;8.43;3.70;;;15.50;99.90;;;;;;4965755;28;20180;-87
2021/09/01 04:59:42;;;;;;;9.43;4.23;;;15.50;99.90;;;;;;4965682;28;20196;-84
2021/09/01 05:02:08;;;;;;;11.30;4.30;;;15.50;99.90;;;;;;4967110;28;20172;-85
2021/09/01 05:04:33;;;;;;;8.90;3.90;;;15.50;99.90;;;;;;4981026;28;20709;-85
2021/09/01 05:06:59;;;;;;;9.47;4.13;;;15.50;99.90;;;;;;4967916;28;20180;-84
2021/09/01 05:09:24;;;;;;;9.63;4.17;;;15.50;99.90;;;;;;4965664;28;20298;-85
2021/09/01 05:11:50;;;;;;;10.77;4.10;;;15.50;99.90;;;;;;4965885;28;20187;-85
2021/09/01 05:14:15;;;;;;;9.40;4.10;;;15.50;99.90;;;;;;4966419;28;20679;-86
2021/09/01 05:16:41;;;;;;;8.07;4.30;;;15.50;99.90;;;;;;4966053;28;20183;-85
2021/09/01 05:19:07;;;;;;;9.07;4.03;;;15.50;99.90;;;;;;4965424;28;20254;-84
2021/09/01 05:21:33;;;;;;;10.03;4.10;;;15.50;99.90;;;;;;4965575;28;20196;-84
2021/09/01 05:23:59;;;;;;;8.03;4.60;;;15.50;99.90;;;;;;4966906;28;20180;-84
2021/09/01 05:26:31;;;;;;;11.30;4.20;;;15.50;99.90;;;;;;4966847;28;20191;-84
2021/09/01 05:28:59;;;;;;;9.57;4.40;;;15.50;99.90;;;;;;4968442;28;20230;-85
2021/09/01 05:31:24;;;;;;;6.97;4.00;;;15.50;99.90;;;;;;4967908;28;20572;-84
2021/09/01 05:33:50;;;;;;;10.77;4.63;;;15.50;99.90;;;;;;4993759;28;20200;-84
2021/09/01 05:36:17;;;;;;;9.23;4.63;;;15.50;99.90;;;;;;4995041;28;20631;-85
2021/09/01 05:38:43;;;;;;;8.77;4.60;;;15.50;99.90;;;;;;4983437;28;20204;-87
2021/09/01 05:41:08;;;;;;;9.50;4.53;;;15.50;99.90;;;;;;4998743;28;20232;-85
2021/09/01 05:43:34;;;;;;;12.77;4.53;;;15.50;99.90;;;;;;4995777;28;20177;-85
2021/09/01 05:45:59;;;;;;;9.63;4.63;;;15.60;99.90;;;;;;4995290;28;20547;-85
2021/09/01 05:48:25;;;;;;;11.80;4.80;;;15.50;99.90;;;;;;4996654;28;20197;-85
2021/09/01 05:50:55;;;;;;;8.53;4.20;;;15.50;99.90;;;;;;4995962;28;20177;-85
2021/09/01 05:53:21;;;;;;;10.50;5.77;;;15.50;99.90;;;;;;4995453;28;20173;-85
2021/09/01 05:55:49;;;;;;;8.23;4.63;;;15.50;99.90;;;;;;4996717;28;20218;-83
2021/09/01 05:58:17;;;;;;;9.67;4.70;;;15.50;99.90;;;;;;4982954;28;20647;-83
2021/09/01 06:00:43;;;;;;;9.03;4.40;;;15.50;99.90;;;;;;4997403;28;20191;-83
2021/09/01 06:03:34;;;;;;;11.30;4.77;;;15.50;99.90;;;;;;4980013;28;20657;-82
2021/09/01 06:06:01;;;;;;;8.43;5.03;;;15.60;99.90;;;;;;4994711;28;20177;-80
2021/09/01 06:08:32;;;;;;;12.30;4.70;;;15.50;99.90;;;;;;4980444;28;20240;-84
2021/09/01 06:11:00;;;;;;;10.37;4.67;;;15.60;99.90;;;;;;4977587;28;20191;-82
2021/09/01 06:13:25;;;;;;;11.93;4.80;;;15.60;99.90;;;;;;4980097;28;20185;-82
2021/09/01 06:15:51;;;;;;;9.97;4.87;;;15.60;99.90;;;;;;5001695;28;20176;-83
2021/09/01 06:18:17;;;;;;;11.20;5.07;;;15.60;99.90;;;;;;5001439;28;20644;-85
2021/09/01 06:20:42;;;;;;;9.13;4.47;;;15.60;99.90;;;;;;4984629;28;20176;-85
2021/09/01 06:23:08;;;;;;;12.40;4.83;;;15.50;99.90;;;;;;5004125;28;20180;-85
2021/09/01 06:25:33;;;;;;;11.97;4.50;;;15.60;99.90;;;;;;4986041;28;20208;-85
2021/09/01 06:27:59;;;;;;;11.97;4.90;;;15.60;99.90;;;;;;4985578;28;20219;-85
2021/09/01 06:30:24;;;;;;;12.10;5.10;;;15.60;99.90;;;;;;4984849;28;20201;-83
2021/09/01 06:32:50;;;;;;;11.87;5.13;;;15.60;99.90;;;;;;4998492;28;20550;-85
2021/09/01 06:35:16;;;;;;;8.87;4.37;;;15.60;99.90;;;;;;4984214;28;20259;-85
2021/09/01 06:37:42;;;;;;;8.90;4.60;;;15.70;99.90;;;;;;4996437;28;20228;-83
2021/09/01 06:40:09;;;;;;;10.67;5.20;;;15.60;99.90;;;;;;4980530;28;20206;-81
2021/09/01 06:42:35;;;;;;;8.43;4.53;;;15.70;99.90;;;;;;4979328;28;20177;-79
2021/09/01 06:45:01;;;;;;;11.33;4.93;;;15.70;99.90;;;;;;4979046;28;20180;-80
2021/09/01 06:47:26;;;;;;;10.47;4.73;;;15.70;99.90;;;;;;4998274;28;20189;-80
2021/09/01 06:49:52;;;;;;;12.47;5.33;;;15.70;99.90;;;;;;5015871;28;20196;-86
2021/09/01 06:52:17;;;;;;;8.53;5.10;;;15.70;99.90;;;;;;4983405;28;20195;-82
2021/09/01 06:54:43;;;;;;;11.90;5.40;;;15.70;99.90;;;;;;4984831;28;20270;-82
2021/09/01 06:57:09;;;;;;;10.73;5.47;;;15.70;99.90;;;;;;4984153;28;20576;-82
2021/09/01 06:59:34;;;;;;;8.83;5.17;;;15.70;99.90;;;;;;4984240;28;20212;-82
2021/09/01 07:02:00;;;;;;;11.87;5.10;;;15.80;99.90;;;;;;5016865;28;20172;-83
2021/09/01 07:04:25;;;;;;;11.13;5.33;;;15.80;99.90;;;;;;4999568;28;20581;-82
2021/09/01 07:06:51;;;;;;;9.47;4.80;;;15.80;99.90;;;;;;4983851;28;20185;-83
2021/09/01 07:09:16;;;;;;;9.47;4.90;;;15.80;99.90;;;;;;5000085;28;20280;-82
2021/09/01 07:11:42;;;;;;;10.40;4.83;;;15.80;99.90;;;;;;4983897;28;20185;-84
2021/09/01 07:14:07;;;;;;;13.90;5.80;;;15.80;99.90;;;;;;4999978;28;20283;-82
2021/09/01 07:16:34;;;;;;;10.87;5.20;;;15.80;99.90;;;;;;4983503;28;20237;-82
2021/09/01 07:18:59;;;;;;;10.50;4.93;;;15.80;99.90;;;;;;4999158;28;20192;-82
2021/09/01 07:21:25;;;;;;;9.67;4.93;;;15.80;99.90;;;;;;4983495;28;20189;-84
2021/09/01 07:23:50;;;;;;;10.17;4.90;;;15.80;99.90;;;;;;4999346;28;20664;-85
2021/09/01 07:26:16;;;;;;;11.97;5.03;;;15.90;99.90;;;;;;4983253;28;20181;-82
2021/09/01 07:28:41;;;;;;;8.77;4.77;;;15.90;99.90;;;;;;4982791;28;20204;-82
2021/09/01 07:31:08;;;;;;;12.63;5.60;;;15.90;99.90;;;;;;4983411;28;20183;-82
2021/09/01 07:33:33;;;;;;;13.53;5.90;;;15.90;99.90;;;;;;4999242;28;20196;-82
2021/09/01 07:35:59;;;;;;;11.47;5.53;;;15.90;99.90;;;;;;4982170;28;20177;-84
2021/09/01 07:38:25;;;;;;;8.93;5.13;;;15.90;99.90;;;;;;4981676;28;20283;-85
2021/09/01 07:40:50;;;;;;;11.10;5.57;;;16.00;99.90;;;;;;4982438;28;20240;-81
2021/09/01 07:43:16;;;;;;;12.60;5.43;;;16.00;99.90;;;;;;4998292;28;20208;-82
2021/09/01 07:45:43;;;;;;;10.87;5.40;;;16.00;99.90;;;;;;4999415;28;20177;-82
2021/09/01 07:48:08;;;;;;;11.73;5.43;;;16.00;99.90;;;;;;4999334;28;20214;-81
2021/09/01 07:50:34;;;;;;;9.93;5.33;;;16.00;99.90;;;;;;4999277;28;20185;-82
2021/09/01 07:53:00;;;;;;;8.27;5.00;;;16.00;99.90;;;;;;4998428;28;20192;-82
2021/09/01 07:55:26;;;;;;;13.20;6.13;;;16.10;99.90;;;;;;4983155;28;20223;-82
2021/09/01 07:57:51;;;;;;;10.73;5.20;;;16.10;99.90;;;;;;4983057;28;20634;-83
2021/09/01 08:00:17;;;;;;;11.60;5.47;;;16.10;99.90;;;;;;4998257;28;20193;-82
2021/09/01 08:02:43;;;;;;;10.93;5.63;;;16.10;99.90;;;;;;4982486;28;20171;-81
2021/09/01 08:05:09;;;;;;;12.00;5.33;;;16.20;99.90;;;;;;4981956;28;20248;-82
2021/09/01 08:07:35;;;;;;;11.83;5.57;;;16.10;99.90;;;;;;5000498;28;20232;-82
2021/09/01 08:10:00;;;;;;;11.80;5.63;;;16.10;99.90;;;;;;4985886;28;20227;-83
2021/09/01 08:12:26;;;;;;;12.37;5.33;;;16.20;99.90;;;;;;4986181;28;20193;-82
2021/09/01 08:14:51;;;;;;;12.20;5.70;;;16.30;99.90;;;;;;5002629;28;20254;-84
2021/09/01 08:17:17;;;;;;;12.53;5.30;;;16.10;99.90;;;;;;5002806;28;20227;-82
2021/09/01 08:19:43;;;;;;;10.60;5.90;;;16.20;99.90;;;;;;5019727;28;20197;-82
2021/09/01 08:22:09;;;;;;;11.13;5.80;;;16.20;99.90;;;;;;4987556;28;20184;-82
2021/09/01 08:24:37;;;;;;;15.13;6.47;;;16.20;99.90;;;;;;4987381;28;20192;-82
2021/09/01 08:27:04;;;;;;;15.33;6.37;;;16.20;99.90;;;;;;4987383;28;20189;-82
2021/09/01 08:29:29;;;;;;;13.63;6.33;;;16.20;99.90;;;;;;5003480;28;20739;-82
2021/09/01 08:31:55;;;;;;;14.77;6.70;;;16.20;99.90;;;;;;5003056;28;20177;-82
2021/09/01 08:34:21;;;;;;;17.43;6.97;;;16.20;99.90;;;;;;4988141;28;20563;-83
2021/09/01 08:36:46;;;;;;;12.30;6.90;;;16.20;99.90;;;;;;4987390;28;20177;-82
2021/09/01 08:39:12;;;;;;;11.07;6.27;;;16.20;99.90;;;;;;4987315;28;20707;-82
2021/09/01 08:41:37;;;;;;;11.23;6.10;;;16.20;99.90;;;;;;4986743;28;20858;-82
2021/09/01 08:44:03;;;;;;;12.50;6.43;;;16.20;99.90;;;;;;4984800;28;20599;-82
2021/09/01 08:46:32;;;;;;;10.03;6.47;;;16.10;99.90;;;;;;5001423;28;20204;-83
2021/09/01 08:49:01;;;;;;;10.53;6.17;;;16.20;99.90;;;;;;4985188;28;20205;-82
2021/09/01 08:51:30;;;;;;;9.60;5.50;;;16.20;99.90;;;;;;4984827;28;20200;-83
2021/09/01 08:53:56;;;;;;;10.50;6.03;;;16.20;99.90;;;;;;4984947;28;20208;-82
2021/09/01 08:56:23;;;;;;;11.83;6.30;;;16.20;99.90;;;;;;5003071;28;20178;-82
2021/09/01 08:58:48;;;;;;;12.30;6.10;;;16.30;99.90;;;;;;4986268;28;20196;-82
2021/09/01 09:01:43;;;;;;;12.10;6.03;;;16.20;99.90;;;;;;5002906;28;20197;-82
2021/09/01 09:04:29;;;;;;;12.57;6.10;;;16.20;99.90;;;;;;5002753;28;20729;-82
2021/09/01 09:07:02;;;;;;;11.30;5.77;;;16.20;99.90;;;;;;4969792;28;20224;-84
2021/09/01 09:09:32;;;;;;;8.60;5.13;;;16.20;99.90;;;;;;4984920;28;20236;-82
2021/09/01 09:11:59;;;;;;;10.27;5.00;;;16.20;99.90;;;;;;4986563;28;20184;-82
2021/09/01 09:14:34;;;;;;;11.53;4.87;;;16.20;99.90;;;;;;4986104;28;20235;-82
2021/09/01 09:17:19;;;;;;;8.33;4.43;;;16.20;99.90;;;;;;5001913;28;20644;-82
2021/09/01 09:19:54;;;;;;;8.17;4.20;;;16.20;99.90;;;;;;5003046;28;20209;-82
2021/09/01 09:22:21;;;;;;;9.47;4.20;;;16.20;99.90;;;;;;5002460;28;20182;-82
2021/09/01 09:25:18;;;;;;;10.50;4.50;;;16.20;99.90;;;;;;5018821;28;20185;-82
2021/09/01 09:27:53;;;;;;;11.23;3.93;;;16.30;99.90;;;;;;4983770;28;20197;-85
2021/09/01 09:30:30;;;;;;;7.07;3.60;;;16.30;99.90;;;;;;5019026;28;20216;-83
2021/09/01 09:32:59;;;;;;;6.27;3.80;;;16.30;99.90;;;;;;4986319;28;20184;-82
2021/09/01 09:35:26;;;;;;;9.40;3.50;;;16.30;99.90;;;;;;4987140;28;20208;-83
2021/09/01 09:38:05;;;;;;;11.67;4.67;;;16.30;99.90;;;;;;5002554;28;20180;-85
2021/09/01 09:40:30;;;;;;;7.90;3.50;;;16.40;99.90;;;;;;4985507;28;20188;-82
2021/09/01 09:42:56;;;;;;;8.33;3.60;;;16.40;99.90;;;;;;5000039;28;20173;-83
2021/09/01 09:45:24;;;;;;;9.83;3.60;;;16.50;99.90;;;;;;4984274;28;20675;-83
2021/09/01 09:47:54;;;;;;;10.73;3.90;;;16.60;99.90;;;;;;4999186;28;20169;-82
2021/09/01 09:50:19;;;;;;;8.03;3.33;;;16.70;99.90;;;;;;4985819;28;20236;-82
2021/09/01 09:52:45;;;;;;;7.87;3.77;;;16.70;99.90;;;;;;5002959;28;20184;-82
2021/09/01 09:55:15;;;;;;;7.57;3.43;;;16.80;99.90;;;;;;4986453;28;20211;-83
2021/09/01 09:58:00;;;;;;;10.23;4.10;;;16.90;99.90;;;;;;4987167;28;20177;-82
2021/09/01 10:00:26;;;;;;;9.60;3.87;;;17.00;99.90;;;;;;4985988;28;20636;-83
2021/09/01 10:02:51;;;;;;;8.37;4.10;;;17.10;99.90;;;;;;5002293;28;20184;-82
2021/09/01 10:05:24;;;;;;;8.90;3.83;;;17.10;99.90;;;;;;4986605;28;20275;-82
2021/09/01 10:07:50;;;;;;;10.83;4.00;;;17.20;99.90;;;;;;4983595;28;20188;-83
2021/09/01 10:10:16;;;;;;;8.17;3.90;;;17.20;99.90;;;;;;4981501;28;20224;-86
2021/09/01 10:12:44;;;;;;;9.97;4.03;;;17.20;99.90;;;;;;4979254;28;20177;-86
2021/09/01 10:15:12;;;;;;;9.77;4.50;;;17.20;99.90;;;;;;4981735;28;20259;-84
2021/09/01 10:17:39;;;;;;;7.63;4.20;;;17.30;99.90;;;;;;4978562;28;20177;-85
2021/09/01 10:20:07;;;;;;;9.83;3.70;;;17.30;99.90;;;;;;4970857;28;20205;-88
2021/09/01 10:22:32;;;;;;;5.70;3.00;;;17.30;99.90;;;;;;4987024;28;20179;-85
2021/09/01 10:24:58;;;;;;;8.63;2.57;;;17.30;99.90;;;;;;4992881;28;20557;-84
2021/09/01 10:27:25;;;;;;;7.23;2.93;;;17.30;99.90;;;;;;4980434;28;20572;-84
2021/09/01 10:29:57;;;;;;;7.97;3.53;;;17.30;99.90;;;;;;4990150;28;20201;-85
2021/09/01 10:32:23;;;;;;;7.80;2.90;;;17.30;99.90;;;;;;4979312;28;20169;-85
2021/09/01 10:34:50;;;;;;;7.10;2.93;;;17.30;99.90;;;;;;4978712;28;20219;-85
2021/09/01 10:38:05;;;;;;;7.67;3.10;;;17.30;99.90;;;;;;4962147;28;20184;-83
2021/09/01 10:40:31;;;;;;;8.23;3.10;;;17.40;99.90;;;;;;4993749;28;20189;-87
2021/09/01 10:42:57;;;;;;;5.73;3.60;;;17.40;99.90;;;;;;5007705;28;20188;-85
2021/09/01 10:45:32;;;;;;;6.53;3.40;;;17.50;99.90;;;;;;4980979;28;20188;-85
2021/09/01 10:48:02;;;;;;;9.77;3.70;;;17.50;99.90;;;;;;5013892;28;20223;-86
2021/09/01 10:50:32;;;;;;;7.00;3.30;;;17.60;99.90;;;;;;4997360;28;20259;-86
2021/09/01 10:53:02;;;;;;;9.03;3.80;;;17.60;99.90;;;;;;5010309;28;20283;-88
2021/09/01 10:55:28;;;;;;;10.20;3.83;;;17.70;99.90;;;;;;5033757;28;20222;-86
2021/09/01 10:58:13;;;;;;;7.73;3.53;;;17.60;99.90;;;;;;5018519;28;20183;-84
2021/09/01 11:00:39;;;;;;;7.17;3.27;;;17.60;99.90;;;;;;5017119;28;20271;-86
2021/09/01 11:03:04;;;;;;;9.83;3.60;;;17.60;99.90;;;;;;5001470;28;20187;-84
2021/09/01 11:05:30;;;;;;;9.63;3.60;;;17.70;99.90;;;;;;5019086;28;20175;-85
2021/09/01 11:07:56;;;;;;;6.73;3.60;;;17.70;99.90;;;;;;5003473;28;20171;-85
2021/09/01 11:10:22;;;;;;;8.67;4.23;;;17.80;99.90;;;;;;5003065;28;20215;-85
2021/09/01 11:12:59;;;;;;;8.27;3.90;;;17.80;99.90;;;;;;5002841;28;20180;-86
2021/09/01 11:15:25;;;;;;;11.00;4.67;;;17.80;99.90;;;;;;5004824;28;20203;-85
2021/09/01 11:17:51;;;;;;;7.67;4.20;;;17.80;99.90;;;;;;4985579;28;20670;-87
2021/09/01 11:20:16;;;;;;;8.30;4.50;;;17.80;99.90;;;;;;4989058;28;20259;-85
2021/09/01 11:22:42;;;;;;;6.23;4.43;;;17.80;99.90;;;;;;4951192;28;20648;-87
2021/09/01 11:25:12;;;;;;;6.33;4.03;;;17.80;99.90;;;;;;4960742;28;20188;-87
2021/09/01 11:27:46;;;;;;;7.20;3.23;;;17.80;99.90;;;;;;4958210;28;20180;-85
2021/09/01 11:30:12;;;;;;;10.77;3.97;;;17.80;99.90;;;;;;4958816;28;20212;-86
2021/09/01 11:32:41;;;;;;;7.13;3.57;;;17.80;99.90;;;;;;4959391;28;20181;-87
2021/09/01 11:35:13;;;;;;;11.80;4.10;;;17.70;99.90;;;;;;4960062;28;20200;-84
2021/09/01 11:37:39;;;;;;;6.93;3.83;;;17.70;99.90;;;;;;4974805;28;20181;-85
2021/09/01 11:40:05;;;;;;;11.93;4.10;;;17.80;99.90;;;;;;4959335;28;20204;-84
2021/09/01 11:42:34;;;;;;;8.53;4.50;;;17.90;99.90;;;;;;4958728;28;20203;-86
2021/09/01 11:45:00;;;;;;;8.80;3.80;;;17.90;99.90;;;;;;4959779;28;20208;-85
2021/09/01 11:47:26;;;;;;;9.93;4.00;;;18.00;99.90;;;;;;4958661;28;20196;-85
2021/09/01 11:49:55;;;;;;;7.80;3.80;;;18.10;99.90;;;;;;4958963;28;20208;-86
2021/09/01 11:52:32;;;;;;;8.80;3.87;;;18.00;99.90;;;;;;4959228;28;20184;-87
2021/09/01 11:54:57;;;;;;;10.77;4.10;;;18.00;99.90;;;;;;4960354;28;20200;-86
2021/09/01 11:57:27;;;;;;;8.23;3.97;;;18.10;99.90;;;;;;4958525;28;20183;-86
2021/09/01 11:59:53;;;;;;;7.87;3.90;;;18.10;99.90;;;;;;4945530;28;20308;-84
2021/09/01 12:02:24;;;;;;;9.93;4.00;;;18.10;99.90;;;;;;4964643;28;20657;-82
2021/09/01 12:04:50;;;;;;;8.03;4.50;;;18.00;99.90;;;;;;4965047;28;20652;-84
2021/09/01 12:07:32;;;;;;;6.77;4.13;;;18.10;99.90;;;;;;4971045;28;20195;-83
2021/09/01 12:09:59;;;;;;;6.53;3.80;;;18.10;99.90;;;;;;4975340;28;20692;-83
2021/09/01 12:12:32;;;;;;;8.03;3.90;;;18.10;99.90;;;;;;4968230;28;20196;-83
2021/09/01 12:15:14;;;;;;;6.63;4.03;;;18.10;99.90;;;;;;4994469;28;20232;-84
2021/09/01 12:17:58;;;;;;;9.50;4.27;;;18.10;99.90;;;;;;4982617;28;20272;-84
2021/09/01 12:20:24;;;;;;;11.07;3.97;;;18.10;99.90;;;;;;5009473;28;20196;-84
2021/09/01 12:22:50;;;;;;;9.40;4.30;;;18.10;99.90;;;;;;4995599;28;20215;-84
2021/09/01 12:25:17;;;;;;;8.37;4.00;;;18.10;99.90;;;;;;4963919;28;20648;-81
2021/09/01 12:28:11;;;;;;;9.07;3.97;;;18.10;99.90;;;;;;4975743;28;20185;-83
2021/09/01 12:30:42;;;;;;;7.13;3.90;;;18.10;99.90;;;;;;4975358;28;20176;-84
2021/09/01 12:33:19;;;;;;;7.97;4.23;;;18.10;99.90;;;;;;4971536;28;20189;-82
2021/09/01 12:35:45;;;;;;;10.53;4.07;;;18.10;99.90;;;;;;4965272;28;20208;-83
2021/09/01 12:38:23;;;;;;;10.47;4.00;;;18.10;99.90;;;;;;4959463;28;20200;-83
2021/09/01 12:40:49;;;;;;;8.90;3.93;;;18.10;99.90;;;;;;4990703;28;20180;-85
2021/09/01 12:43:14;;;;;;;7.23;4.20;;;18.10;99.90;;;;;;4972103;28;20271;-83
2021/09/01 12:45:46;;;;;;;10.07;4.63;;;18.20;99.90;;;;;;4977919;28;20283;-83